createdAt,value
2023-04-30T00:00:12.748Z,97921.44
2023-04-30T00:02:40.349Z,97917.28
2023-04-30T00:05:08.498Z,97912.09
2023-04-30T00:07:36.003Z,97915.25
2023-04-30T00:10:05.349Z,97908.88
2023-04-30T00:12:32.862Z,97908.69
2023-04-30T00:15:01.390Z,97903.25
2023-04-30T00:17:28.941Z,97913.97
2023-04-30T00:19:56.679Z,97911.28
2023-04-30T00:22:24.447Z,97915.44
2023-04-30T00:24:52.005Z,97919.97
2023-04-30T00:27:19.486Z,97924.53
2023-04-30T00:29:47.026Z,97922.19
2023-04-30T00:32:14.627Z,97918.88
2023-04-30T00:34:42.647Z,97925.06
2023-04-30T00:37:10.183Z,97921.38
2023-04-30T00:39:37.784Z,97926.34
2023-04-30T00:42:05.629Z,97929.50
2023-04-30T00:44:33.477Z,97926.00
2023-04-30T00:47:00.959Z,97935.50
2023-04-30T00:49:28.604Z,97939.00
2023-04-30T00:51:56.565Z,97932.81
2023-04-30T00:54:25.273Z,97926.00
2023-04-30T00:56:52.853Z,97937.06
2023-04-30T00:59:20.932Z,97932.09
2023-04-30T01:01:48.575Z,97935.13
2023-04-30T01:04:16.473Z,97929.28
2023-04-30T01:06:43.989Z,97923.94
2023-04-30T01:09:11.647Z,97923.75
2023-04-30T01:12:13.410Z,97915.88
2023-04-30T01:15:32.543Z,97920.06
2023-04-30T01:18:10.170Z,97923.56
2023-04-30T01:20:47.997Z,97922.94
2023-04-30T01:23:46.696Z,97918.56
2023-04-30T01:26:35.588Z,97920.25
2023-04-30T01:29:04.273Z,97915.88
2023-04-30T01:31:31.864Z,97908.41
2023-04-30T01:33:59.486Z,97915.81
2023-04-30T01:37:05.860Z,97913.66
2023-04-30T01:40:14.553Z,97910.31
2023-04-30T01:42:49.993Z,97908.19
2023-04-30T01:45:47.046Z,97914.13
2023-04-30T01:49:00.570Z,97911.44
2023-04-30T01:51:55.921Z,97911.06
2023-04-30T01:54:38.547Z,97909.88
2023-04-30T01:57:24.163Z,97915.03
2023-04-30T01:59:52.802Z,97913.22
2023-04-30T02:02:20.758Z,97903.50
2023-04-30T02:04:48.342Z,97913.84
2023-04-30T02:07:39.326Z,97905.81
2023-04-30T02:10:08.714Z,97909.97
2023-04-30T02:12:36.546Z,97901.44
2023-04-30T02:15:06.067Z,97894.25
2023-04-30T02:17:34.255Z,97903.13
2023-04-30T02:20:02.095Z,97893.78
2023-04-30T02:22:30.320Z,97900.97
2023-04-30T02:24:57.861Z,97899.16
2023-04-30T02:27:26.889Z,97901.63
2023-04-30T02:29:54.700Z,97900.44
2023-04-30T02:32:22.633Z,97906.47
2023-04-30T02:34:50.435Z,97909.16
2023-04-30T02:37:17.988Z,97904.97
2023-04-30T02:39:45.515Z,97912.19
2023-04-30T02:42:13.056Z,97899.81
2023-04-30T02:44:41.093Z,97908.19
2023-04-30T02:47:08.699Z,97902.84
2023-04-30T02:49:36.430Z,97905.53
2023-04-30T02:52:04.063Z,97909.88
2023-04-30T02:54:31.663Z,97906.53
2023-04-30T02:56:59.475Z,97902.19
2023-04-30T02:59:27.223Z,97901.53
2023-04-30T03:01:54.772Z,97900.91
2023-04-30T03:04:22.366Z,97896.34
2023-04-30T03:06:49.869Z,97895.72
2023-04-30T03:09:17.902Z,97891.72
2023-04-30T03:11:45.458Z,97885.56
2023-04-30T03:14:13.019Z,97884.69
2023-04-30T03:16:40.689Z,97888.59
2023-04-30T03:19:08.351Z,97890.31
2023-04-30T03:21:35.875Z,97892.06
2023-04-30T03:24:03.455Z,97896.31
2023-04-30T03:26:30.937Z,97886.75
2023-04-30T03:28:58.552Z,97886.28
2023-04-30T03:31:26.224Z,97892.53
2023-04-30T03:33:53.818Z,97890.22
2023-04-30T03:36:22.235Z,97894.91
2023-04-30T03:38:49.760Z,97895.56
2023-04-30T03:41:17.281Z,97899.72
2023-04-30T03:43:44.853Z,97901.56
2023-04-30T03:46:12.587Z,97902.41
2023-04-30T03:48:40.239Z,97906.59
2023-04-30T03:51:07.729Z,97902.88
2023-04-30T03:53:35.340Z,97904.56
2023-04-30T03:56:04.590Z,97901.22
2023-04-30T03:58:32.626Z,97899.38
2023-04-30T04:01:00.165Z,97903.91
2023-04-30T04:03:27.834Z,97900.84
2023-04-30T04:05:55.386Z,97905.03
2023-04-30T04:08:23.254Z,97908.88
2023-04-30T04:10:50.963Z,97905.38
2023-04-30T04:13:18.647Z,97904.56
2023-04-30T04:15:46.592Z,97902.34
2023-04-30T04:18:14.123Z,97911.25
2023-04-30T04:20:41.855Z,97915.41
2023-04-30T04:23:09.374Z,97916.44
2023-04-30T04:25:36.854Z,97915.75
2023-04-30T04:28:04.658Z,97913.06
2023-04-30T04:30:32.295Z,97921.13
2023-04-30T04:33:00.447Z,97920.25
2023-04-30T04:35:29.845Z,97921.97
2023-04-30T04:37:57.814Z,97916.44
2023-04-30T04:40:25.324Z,97917.44
2023-04-30T04:42:53.049Z,97925.31
2023-04-30T04:45:20.651Z,97928.63
2023-04-30T04:47:49.325Z,97930.50
2023-04-30T04:50:17.369Z,97924.94
2023-04-30T04:52:45.133Z,97922.44
2023-04-30T04:55:13.914Z,97924.28
2023-04-30T04:57:42.481Z,97929.84
2023-04-30T05:00:11.743Z,97934.81
2023-04-30T05:02:39.307Z,97928.28
2023-04-30T05:05:07.847Z,97921.91
2023-04-30T05:07:35.409Z,97929.94
2023-04-30T05:10:03.560Z,97923.09
2023-04-30T05:12:31.338Z,97927.09
2023-04-30T05:14:58.870Z,97931.25
2023-04-30T05:17:26.398Z,97932.91
2023-04-30T05:19:54.177Z,97926.34
2023-04-30T05:22:21.859Z,97928.31
2023-04-30T05:24:49.416Z,97928.78
2023-04-30T05:27:17.048Z,97931.94
2023-04-30T05:29:44.537Z,97931.59
2023-04-30T05:32:12.112Z,97931.03
2023-04-30T05:34:39.634Z,97932.50
2023-04-30T05:37:07.113Z,97935.00
2023-04-30T05:39:34.615Z,97931.31
2023-04-30T05:42:03.081Z,97936.31
2023-04-30T05:44:30.559Z,97929.94
2023-04-30T05:46:58.074Z,97936.97
2023-04-30T05:49:25.596Z,97924.59
2023-04-30T05:51:53.105Z,97923.19
2023-04-30T05:54:20.576Z,97927.19
2023-04-30T05:56:48.424Z,97922.28
2023-04-30T05:59:15.912Z,97925.06
2023-04-30T06:01:43.448Z,97920.97
2023-04-30T06:04:11.650Z,97926.81
2023-04-30T06:06:39.284Z,97932.47
2023-04-30T06:09:06.839Z,97932.94
2023-04-30T06:11:34.996Z,97934.06
2023-04-30T06:14:03.757Z,97930.16
2023-04-30T06:16:31.596Z,97928.75
2023-04-30T06:18:59.158Z,97929.41
2023-04-30T06:21:26.722Z,97936.44
2023-04-30T06:23:54.284Z,97935.41
2023-04-30T06:26:21.813Z,97938.94
2023-04-30T06:28:49.358Z,97935.53
2023-04-30T06:31:16.909Z,97943.19
2023-04-30T06:33:44.502Z,97938.47
2023-04-30T06:36:12.207Z,97936.59
2023-04-30T06:38:41.305Z,97942.66
2023-04-30T06:41:09.069Z,97936.44
2023-04-30T06:43:36.867Z,97944.47
2023-04-30T06:46:05.074Z,97943.47
2023-04-30T06:48:32.903Z,97939.97
2023-04-30T06:51:00.490Z,97938.56
2023-04-30T06:53:27.989Z,97937.38
2023-04-30T06:55:55.832Z,97940.88
2023-04-30T06:58:24.133Z,97947.38
2023-04-30T07:00:52.383Z,97948.66
2023-04-30T07:03:20.020Z,97944.03
2023-04-30T07:05:47.883Z,97951.59
2023-04-30T07:08:15.381Z,97945.84
2023-04-30T07:10:42.909Z,97943.34
2023-04-30T07:13:10.441Z,97938.19
2023-04-30T07:15:38.422Z,97929.47
2023-04-30T07:18:06.017Z,97929.06
2023-04-30T07:20:33.671Z,97930.13
2023-04-30T07:23:01.185Z,97934.44
2023-04-30T07:25:28.669Z,97933.03
2023-04-30T07:27:56.355Z,97935.38
2023-04-30T07:30:25.208Z,97929.88
2023-04-30T07:32:53.209Z,97932.25
2023-04-30T07:35:20.756Z,97930.66
2023-04-30T07:37:48.248Z,97924.91
2023-04-30T07:40:25.013Z,97923.03
2023-04-30T07:42:52.821Z,97928.03
2023-04-30T07:45:20.450Z,97922.91
2023-04-30T07:47:48.724Z,97925.88
2023-04-30T07:50:17.148Z,97910.38
2023-04-30T07:52:44.930Z,97912.03
2023-04-30T07:55:12.986Z,97907.91
2023-04-30T07:57:41.022Z,97914.16
2023-04-30T08:00:09.467Z,97904.84
2023-04-30T08:02:46.105Z,97907.91
2023-04-30T08:05:13.811Z,97908.13
2023-04-30T08:07:41.750Z,97910.19
2023-04-30T08:10:09.566Z,97908.13
2023-04-30T08:12:37.374Z,97906.91
2023-04-30T08:15:07.362Z,97913.94
2023-04-30T08:17:35.605Z,97907.19
2023-04-30T08:20:07.309Z,97908.44
2023-04-30T08:22:34.893Z,97914.00
2023-04-30T08:25:02.684Z,97913.63
2023-04-30T08:27:32.183Z,97917.38
2023-04-30T08:29:59.710Z,97912.94
2023-04-30T08:32:28.278Z,97914.63
2023-04-30T08:34:56.023Z,97911.78
2023-04-30T08:37:23.756Z,97919.09
2023-04-30T08:39:51.273Z,97915.41
2023-04-30T08:42:21.464Z,97914.66
2023-04-30T08:44:49.003Z,97914.75
2023-04-30T08:47:18.100Z,97916.66
2023-04-30T08:49:46.222Z,97919.59
2023-04-30T08:52:14.586Z,97915.66
2023-04-30T08:54:44.193Z,97916.34
2023-04-30T08:57:11.750Z,97918.44
2023-04-30T08:59:39.361Z,97916.59
2023-04-30T09:02:07.526Z,97924.78
2023-04-30T09:04:35.205Z,97922.75
2023-04-30T09:07:05.592Z,97917.78
2023-04-30T09:09:40.813Z,97924.44
2023-04-30T09:12:18.864Z,97915.75
2023-04-30T09:15:05.136Z,97912.88
2023-04-30T09:17:35.258Z,97909.97
2023-04-30T09:20:13.632Z,97913.72
2023-04-30T09:22:42.432Z,97909.56
2023-04-30T09:25:11.402Z,97904.19
2023-04-30T09:27:38.936Z,97905.44
2023-04-30T09:30:08.730Z,97909.59
2023-04-30T09:32:36.453Z,97910.66
2023-04-30T09:35:04.764Z,97911.69
2023-04-30T09:37:37.442Z,97907.97
2023-04-30T09:40:05.685Z,97900.88
2023-04-30T09:42:33.303Z,97907.72
2023-04-30T09:45:00.858Z,97906.88
2023-04-30T09:47:31.843Z,97910.59
2023-04-30T09:50:00.428Z,97912.88
2023-04-30T09:52:28.092Z,97906.69
2023-04-30T09:54:55.558Z,97907.06
2023-04-30T09:57:24.479Z,97911.41
2023-04-30T09:59:54.028Z,97911.00
2023-04-30T10:02:23.909Z,97912.91
2023-04-30T10:04:57.989Z,97910.16
2023-04-30T10:07:39.115Z,97905.59
2023-04-30T10:10:10.962Z,97907.84
2023-04-30T10:12:47.868Z,97899.31
2023-04-30T10:15:25.745Z,97901.78
2023-04-30T10:18:02.599Z,97899.88
2023-04-30T10:20:34.989Z,97898.19
2023-04-30T10:23:02.738Z,97901.06
2023-04-30T10:25:31.487Z,97896.28
2023-04-30T10:27:59.319Z,97900.19
2023-04-30T10:30:27.410Z,97901.47
2023-04-30T10:33:31.357Z,97899.44
2023-04-30T10:36:06.605Z,97889.84
2023-04-30T10:38:36.079Z,97890.94
2023-04-30T10:41:07.735Z,97891.94
2023-04-30T10:43:36.854Z,97886.25
2023-04-30T10:46:04.702Z,97895.56
2023-04-30T10:48:35.817Z,97888.41
2023-04-30T10:51:04.248Z,97892.75
2023-04-30T10:53:32.401Z,97883.13
2023-04-30T10:56:08.230Z,97874.75
2023-04-30T10:58:40.554Z,97879.28
2023-04-30T11:01:17.269Z,97880.31
2023-04-30T11:04:09.398Z,97875.09
2023-04-30T11:07:02.278Z,97873.59
2023-04-30T11:09:45.022Z,97872.94
2023-04-30T11:12:28.470Z,97871.59
2023-04-30T11:15:14.451Z,97860.06
2023-04-30T11:17:50.489Z,97866.38
2023-04-30T11:20:24.034Z,97856.63
2023-04-30T11:23:19.643Z,97856.69
2023-04-30T11:25:57.674Z,97856.31
2023-04-30T11:28:27.418Z,97852.31
2023-04-30T11:31:01.443Z,97852.78
2023-04-30T11:33:33.690Z,97857.81
2023-04-30T11:36:02.228Z,97853.69
2023-04-30T11:38:35.002Z,97848.19
2023-04-30T11:41:04.639Z,97850.81
2023-04-30T11:43:34.516Z,97847.72
2023-04-30T11:46:09.318Z,97848.31
2023-04-30T11:48:47.194Z,97852.03
2023-04-30T11:51:24.051Z,97851.88
2023-04-30T11:53:53.376Z,97845.34
2023-04-30T11:56:23.986Z,97836.78
2023-04-30T11:58:57.730Z,97833.00
2023-04-30T12:01:28.496Z,97834.22
2023-04-30T12:03:57.573Z,97837.94
2023-04-30T12:06:28.019Z,97842.31
2023-04-30T12:11:34.366Z,97835.81
2023-04-30T12:14:07.468Z,97838.22
2023-04-30T12:16:51.279Z,97831.31
2023-04-30T12:19:25.016Z,97826.72
2023-04-30T12:21:55.068Z,97829.22
2023-04-30T12:24:26.993Z,97832.72
2023-04-30T12:26:54.661Z,97832.50
2023-04-30T12:29:22.997Z,97835.22
2023-04-30T12:31:53.167Z,97832.72
2023-04-30T12:34:20.768Z,97834.09
2023-04-30T12:36:48.392Z,97827.00
2023-04-30T12:39:16.584Z,97832.03
2023-04-30T12:41:49.610Z,97844.53
2023-04-30T12:44:29.026Z,97835.94
2023-04-30T12:47:00.529Z,97823.00
2023-04-30T12:49:34.369Z,97817.59
2023-04-30T12:52:08.528Z,97821.97
2023-04-30T12:54:38.008Z,97818.56
2023-04-30T12:57:10.046Z,97814.59
2023-04-30T13:00:00.789Z,97810.22
2023-04-30T13:02:31.998Z,97811.44
2023-04-30T13:04:59.973Z,97806.41
2023-04-30T13:07:36.122Z,97807.50
2023-04-30T13:10:03.934Z,97802.28
2023-04-30T13:12:31.476Z,97799.03
2023-04-30T13:14:58.952Z,97799.03
2023-04-30T13:17:26.697Z,97798.56
2023-04-30T13:19:54.441Z,97794.00
2023-04-30T13:22:23.754Z,97790.00
2023-04-30T13:24:51.513Z,97786.25
2023-04-30T13:27:19.031Z,97781.63
2023-04-30T13:29:46.674Z,97785.75
2023-04-30T13:32:14.248Z,97793.81
2023-04-30T13:34:41.867Z,97780.63
2023-04-30T13:37:09.575Z,97782.72
2023-04-30T13:39:37.210Z,97785.00
2023-04-30T13:42:05.396Z,97784.53
2023-04-30T13:44:33.757Z,97783.03
2023-04-30T13:47:01.573Z,97776.31
2023-04-30T13:49:29.195Z,97784.00
2023-04-30T13:51:57.257Z,97779.28
2023-04-30T13:54:24.740Z,97774.38
2023-04-30T13:56:52.317Z,97765.06
2023-04-30T13:59:19.943Z,97768.66
2023-04-30T14:01:47.560Z,97764.19
2023-04-30T14:04:15.253Z,97773.03
2023-04-30T14:06:43.565Z,97764.31
2023-04-30T14:09:11.740Z,97750.03
2023-04-30T14:11:39.785Z,97750.97
2023-04-30T14:14:08.916Z,97764.66
2023-04-30T14:16:36.829Z,97761.47
2023-04-30T14:19:04.884Z,97747.69
2023-04-30T14:21:33.191Z,97760.44
2023-04-30T14:24:00.743Z,97754.66
2023-04-30T14:26:28.570Z,97749.09
2023-04-30T14:28:57.253Z,97747.09
2023-04-30T14:31:24.958Z,97753.09
2023-04-30T14:33:52.558Z,97737.06
2023-04-30T14:36:20.165Z,97739.91
2023-04-30T14:38:47.725Z,97737.44
2023-04-30T14:41:15.379Z,97737.44
2023-04-30T14:43:42.956Z,97724.81
2023-04-30T14:46:11.610Z,97725.16
2023-04-30T14:48:39.421Z,97721.84
2023-04-30T14:51:07.622Z,97729.38
2023-04-30T14:53:37.759Z,97718.53
2023-04-30T14:56:07.168Z,97715.81
2023-04-30T14:58:34.911Z,97715.50
2023-04-30T15:01:02.537Z,97714.78
2023-04-30T15:03:31.055Z,97718.56
2023-04-30T15:06:00.120Z,97721.50
2023-04-30T15:08:27.720Z,97708.16
2023-04-30T15:10:55.951Z,97704.03
2023-04-30T15:13:23.512Z,97704.34
2023-04-30T15:15:51.168Z,97691.50
2023-04-30T15:18:18.788Z,97695.13
2023-04-30T15:20:47.085Z,97699.88
2023-04-30T15:23:14.883Z,97697.59
2023-04-30T15:25:44.050Z,97699.38
2023-04-30T15:28:11.606Z,97692.44
2023-04-30T15:30:39.232Z,97692.22
2023-04-30T15:33:06.898Z,97681.75
2023-04-30T15:35:34.777Z,97686.59
2023-04-30T15:38:02.294Z,97687.28
2023-04-30T15:40:29.772Z,97695.69
2023-04-30T15:42:57.273Z,97697.56
2023-04-30T15:45:25.287Z,97687.78
2023-04-30T15:47:52.930Z,97686.34
2023-04-30T15:50:21.257Z,97687.88
2023-04-30T15:52:48.833Z,97681.88
2023-04-30T15:55:16.525Z,97679.28
2023-04-30T15:57:44.204Z,97668.09
2023-04-30T16:00:14.515Z,97679.06
2023-04-30T16:02:42.372Z,97673.03
2023-04-30T16:05:10.251Z,97674.91
2023-04-30T16:07:38.090Z,97668.69
2023-04-30T16:10:06.916Z,97673.16
2023-04-30T16:12:34.455Z,97675.97
2023-04-30T16:15:02.002Z,97669.34
2023-04-30T16:17:31.049Z,97668.41
2023-04-30T16:20:00.231Z,97666.38
2023-04-30T16:22:28.520Z,97664.03
2023-04-30T16:24:56.320Z,97659.56
2023-04-30T16:27:24.199Z,97661.91
2023-04-30T16:29:51.790Z,97661.16
2023-04-30T16:32:19.417Z,97667.31
2023-04-30T16:34:47.117Z,97663.84
2023-04-30T16:37:15.535Z,97668.19
2023-04-30T16:39:43.071Z,97661.06
2023-04-30T16:42:11.336Z,97655.88
2023-04-30T16:44:39.011Z,97650.31
2023-04-30T16:47:06.917Z,97648.66
2023-04-30T16:49:34.730Z,97647.84
2023-04-30T16:52:02.372Z,97645.59
2023-04-30T16:54:29.958Z,97643.59
2023-04-30T16:56:57.744Z,97639.09
2023-04-30T16:59:25.263Z,97630.00
2023-04-30T17:01:56.357Z,97631.75
2023-04-30T17:04:24.386Z,97632.88
2023-04-30T17:06:52.455Z,97639.81
2023-04-30T17:09:20.101Z,97642.38
2023-04-30T17:11:47.653Z,97652.22
2023-04-30T17:14:15.262Z,97649.00
2023-04-30T17:16:43.780Z,97642.47
2023-04-30T17:19:11.274Z,97642.56
2023-04-30T17:21:38.853Z,97639.88
2023-04-30T17:24:06.861Z,97653.00
2023-04-30T17:26:34.400Z,97645.00
2023-04-30T17:29:01.959Z,97651.44
2023-04-30T17:31:30.884Z,97642.94
2023-04-30T17:33:59.965Z,97641.13
2023-04-30T17:36:30.271Z,97642.84
2023-04-30T17:38:57.821Z,97643.75
2023-04-30T17:41:26.234Z,97646.31
2023-04-30T17:43:53.752Z,97648.03
2023-04-30T17:46:22.385Z,97652.44
2023-04-30T17:48:49.940Z,97647.53
2023-04-30T17:51:18.357Z,97643.84
2023-04-30T17:53:45.829Z,97641.19
2023-04-30T17:56:13.491Z,97650.38
2023-04-30T17:58:41.016Z,97644.19
2023-04-30T18:01:08.689Z,97656.50
2023-04-30T18:03:36.356Z,97649.03
2023-04-30T18:06:04.176Z,97650.94
2023-04-30T18:08:32.435Z,97655.56
2023-04-30T18:10:59.966Z,97654.78
2023-04-30T18:13:27.484Z,97658.34
2023-04-30T18:15:55.430Z,97660.03
2023-04-30T18:18:23.256Z,97664.44
2023-04-30T18:20:51.879Z,97667.19
2023-04-30T18:23:20.810Z,97664.06
2023-04-30T18:25:49.038Z,97668.66
2023-04-30T18:28:16.555Z,97663.69
2023-04-30T18:30:45.045Z,97660.84
2023-04-30T18:33:12.633Z,97660.63
2023-04-30T18:35:40.250Z,97658.59
2023-04-30T18:38:08.194Z,97657.53
2023-04-30T18:40:35.722Z,97659.22
2023-04-30T18:43:03.696Z,97656.56
2023-04-30T18:45:31.251Z,97661.75
2023-04-30T18:47:58.805Z,97658.84
2023-04-30T18:50:26.455Z,97660.09
2023-04-30T18:52:54.058Z,97663.66
2023-04-30T18:55:21.722Z,97662.84
2023-04-30T18:57:50.558Z,97659.94
2023-04-30T19:00:18.138Z,97665.97
2023-04-30T19:02:45.703Z,97657.91
2023-04-30T19:05:14.167Z,97666.81
2023-04-30T19:07:41.775Z,97668.25
2023-04-30T19:10:09.606Z,97661.22
2023-04-30T19:12:37.190Z,97664.75
2023-04-30T19:15:07.870Z,97664.97
2023-04-30T19:17:35.443Z,97667.25
2023-04-30T19:20:03.755Z,97668.50
2023-04-30T19:22:31.355Z,97670.56
2023-04-30T19:24:58.819Z,97670.94
2023-04-30T19:27:26.420Z,97673.41
2023-04-30T19:29:54.514Z,97678.41
2023-04-30T19:32:22.864Z,97677.75
2023-04-30T19:34:51.893Z,97679.84
2023-04-30T19:37:19.413Z,97673.00
2023-04-30T19:39:46.928Z,97676.09
2023-04-30T19:42:15.224Z,97673.19
2023-04-30T19:44:42.768Z,97672.78
2023-04-30T19:47:10.369Z,97680.25
2023-04-30T19:49:37.935Z,97676.25
2023-04-30T19:52:07.687Z,97681.03
2023-04-30T19:54:35.605Z,97677.72
2023-04-30T19:57:03.578Z,97676.06
2023-04-30T19:59:31.333Z,97677.28
2023-04-30T20:01:59.713Z,97668.19
2023-04-30T20:04:27.322Z,97669.41
2023-04-30T20:06:57.308Z,97671.66
2023-04-30T20:09:24.956Z,97671.28
2023-04-30T20:11:52.534Z,97676.00
2023-04-30T20:14:21.293Z,97668.34
2023-04-30T20:16:53.536Z,97674.53
2023-04-30T20:19:22.267Z,97671.63
2023-04-30T20:21:50.946Z,97675.13
2023-04-30T20:24:19.054Z,97673.25
2023-04-30T20:26:46.688Z,97679.44
2023-04-30T20:29:14.399Z,97682.47
2023-04-30T20:31:42.087Z,97672.72
2023-04-30T20:34:09.647Z,97678.72
2023-04-30T20:36:37.239Z,97675.78
2023-04-30T20:39:04.757Z,97685.28
2023-04-30T20:41:32.291Z,97673.28
2023-04-30T20:44:00.551Z,97670.38
2023-04-30T20:46:28.631Z,97673.63
2023-04-30T20:49:02.381Z,97675.06
2023-04-30T20:51:30.130Z,97673.81
2023-04-30T20:53:57.642Z,97669.84
2023-04-30T20:56:25.840Z,97668.59
2023-04-30T20:58:54.454Z,97667.53
2023-04-30T21:01:22.486Z,97665.41
2023-04-30T21:03:50.107Z,97661.28
2023-04-30T21:06:17.859Z,97661.00
2023-04-30T21:08:46.454Z,97662.84
2023-04-30T21:11:16.624Z,97659.53
2023-04-30T21:13:44.134Z,97659.09
2023-04-30T21:16:11.804Z,97661.13
2023-04-30T21:18:39.339Z,97655.13
2023-04-30T21:21:09.214Z,97657.19
2023-04-30T21:23:37.377Z,97653.66
2023-04-30T21:26:04.931Z,97649.69
2023-04-30T21:28:33.804Z,97657.13
2023-04-30T21:31:08.530Z,97651.53
2023-04-30T21:33:36.990Z,97649.41
2023-04-30T21:36:08.039Z,97651.88
2023-04-30T21:38:36.492Z,97644.34
2023-04-30T21:41:04.448Z,97643.91
2023-04-30T21:43:32.007Z,97635.63
2023-04-30T21:46:03.164Z,97632.28
2023-04-30T21:48:30.755Z,97633.31
2023-04-30T21:50:58.253Z,97641.72
2023-04-30T21:53:26.159Z,97634.28
2023-04-30T21:55:53.687Z,97636.50
2023-04-30T21:58:21.250Z,97635.41
2023-04-30T22:00:49.524Z,97631.47
2023-04-30T22:03:17.193Z,97628.16
2023-04-30T22:05:46.218Z,97630.00
2023-04-30T22:08:13.699Z,97624.19
2023-04-30T22:10:41.316Z,97617.16
2023-04-30T22:13:08.797Z,97615.69
2023-04-30T22:15:47.119Z,97620.41
2023-04-30T22:18:15.599Z,97613.41
2023-04-30T22:20:43.151Z,97610.72
2023-04-30T22:23:10.795Z,97611.09
2023-04-30T22:25:38.432Z,97605.91
2023-04-30T22:28:06.000Z,97604.47
2023-04-30T22:30:33.492Z,97603.19
2023-04-30T22:33:01.029Z,97605.22
2023-04-30T22:35:29.421Z,97601.91
2023-04-30T22:37:56.969Z,97608.09
2023-04-30T22:40:24.770Z,97600.06
2023-04-30T22:42:52.329Z,97599.41
2023-04-30T22:45:19.899Z,97593.41
2023-04-30T22:47:47.794Z,97594.59
2023-04-30T22:50:15.444Z,97589.25
2023-04-30T22:52:42.970Z,97591.28
2023-04-30T22:55:10.985Z,97585.28
2023-04-30T22:57:38.613Z,97591.06
2023-04-30T23:00:07.113Z,97589.38
2023-04-30T23:02:34.704Z,97590.78
2023-04-30T23:05:03.905Z,97591.81
2023-04-30T23:07:31.962Z,97591.38
2023-04-30T23:09:59.455Z,97588.88
2023-04-30T23:12:27.515Z,97589.88
2023-04-30T23:14:55.212Z,97588.88
2023-04-30T23:17:23.271Z,97585.38
2023-04-30T23:19:50.790Z,97589.69
2023-04-30T23:22:18.297Z,97588.03
2023-04-30T23:24:45.837Z,97590.09
2023-04-30T23:27:13.332Z,97590.28
2023-04-30T23:29:40.866Z,97588.41
2023-04-30T23:32:08.760Z,97584.91
2023-04-30T23:34:36.283Z,97584.09
2023-04-30T23:37:03.867Z,97580.75
2023-04-30T23:39:31.353Z,97577.41
2023-04-30T23:41:58.922Z,97584.63
2023-04-30T23:44:26.419Z,97576.13
2023-04-30T23:46:55.822Z,97581.72
2023-04-30T23:49:24.914Z,97580.88
2023-04-30T23:51:53.083Z,97576.72
2023-04-30T23:54:20.862Z,97568.03
2023-04-30T23:56:48.361Z,97570.09
2023-04-30T23:59:16.041Z,97566.59
